Terminal Aerodrome Forecast
Issued by NWS Brownsville, TX

Home | Current Version | Previous Version | Text Only | Print | Product List | Glossary On
Versions: 1 2 3 4 5 6 7 8 9 10 11 12 13 14 15 16 17 18 19 20 21 22 23 24 25 26 27
000
FTUS44 KBRO 012334
TAFHRL
TAF
KHRL 012334Z 0200/0224 15016G24KT P6SM SKC
     FM020200 16012KT P6SM SCT020
     FM020600 15011KT P6SM OVC015
      TEMPO 0208/0212 OVC007
     FM021200 14009KT 5SM BR OVC015
     FM021500 15016G24KT P6SM OVC015=

USA.gov is the U.S. government's official web portal to all federal, state and local government web resources and services.